sensor_id;sensor_type;location;lat;lon;timestamp;temperature;humidity
37956;DHT22;23776;51.592;7.180;2023-05-07T00:01:02;15.30;86.50
37956;DHT22;23776;51.592;7.180;2023-05-07T00:03:27;15.30;87.20
37956;DHT22;23776;51.592;7.180;2023-05-07T00:05:54;15.30;85.80
37956;DHT22;23776;51.592;7.180;2023-05-07T00:08:19;15.30;85.80
37956;DHT22;23776;51.592;7.180;2023-05-07T00:10:45;15.40;86.20
37956;DHT22;23776;51.592;7.180;2023-05-07T00:13:12;15.30;86.20
37956;DHT22;23776;51.592;7.180;2023-05-07T00:15:37;15.30;86.30
37956;DHT22;23776;51.592;7.180;2023-05-07T00:18:03;15.30;87.10
37956;DHT22;23776;51.592;7.180;2023-05-07T00:20:28;15.30;86.90
37956;DHT22;23776;51.592;7.180;2023-05-07T00:22:54;15.30;87.70
37956;DHT22;23776;51.592;7.180;2023-05-07T00:25:20;15.20;88.10
37956;DHT22;23776;51.592;7.180;2023-05-07T00:27:45;15.30;88.00
37956;DHT22;23776;51.592;7.180;2023-05-07T00:30:11;15.30;87.50
37956;DHT22;23776;51.592;7.180;2023-05-07T00:32:38;15.30;87.90
37956;DHT22;23776;51.592;7.180;2023-05-07T00:35:04;15.30;87.60
37956;DHT22;23776;51.592;7.180;2023-05-07T00:37:30;15.30;87.80
37956;DHT22;23776;51.592;7.180;2023-05-07T00:39:56;15.30;88.30
37956;DHT22;23776;51.592;7.180;2023-05-07T00:42:22;15.20;88.80
37956;DHT22;23776;51.592;7.180;2023-05-07T00:44:48;15.20;88.90
37956;DHT22;23776;51.592;7.180;2023-05-07T00:47:14;15.20;88.80
37956;DHT22;23776;51.592;7.180;2023-05-07T00:49:42;15.20;89.90
37956;DHT22;23776;51.592;7.180;2023-05-07T00:52:09;15.10;88.30
37956;DHT22;23776;51.592;7.180;2023-05-07T00:57:03;15.10;87.40
37956;DHT22;23776;51.592;7.180;2023-05-07T00:59:32;15.10;89.90
37956;DHT22;23776;51.592;7.180;2023-05-07T01:01:58;15.10;87.70
37956;DHT22;23776;51.592;7.180;2023-05-07T01:04:24;15.00;90.00
37956;DHT22;23776;51.592;7.180;2023-05-07T01:06:50;14.90;89.00
37956;DHT22;23776;51.592;7.180;2023-05-07T01:09:16;15.30;90.10
37956;DHT22;23776;51.592;7.180;2023-05-07T01:11:43;14.80;90.00
37956;DHT22;23776;51.592;7.180;2023-05-07T01:14:09;15.60;90.60
37956;DHT22;23776;51.592;7.180;2023-05-07T01:16:36;14.70;90.50
37956;DHT22;23776;51.592;7.180;2023-05-07T01:19:02;14.60;91.20
37956;DHT22;23776;51.592;7.180;2023-05-07T01:21:33;14.60;91.60
37956;DHT22;23776;51.592;7.180;2023-05-07T01:23:58;14.60;91.50
37956;DHT22;23776;51.592;7.180;2023-05-07T01:26:24;14.70;92.00
37956;DHT22;23776;51.592;7.180;2023-05-07T01:28:49;14.70;91.70
37956;DHT22;23776;51.592;7.180;2023-05-07T01:31:16;14.60;91.30
37956;DHT22;23776;51.592;7.180;2023-05-07T01:33:44;14.60;91.60
37956;DHT22;23776;51.592;7.180;2023-05-07T01:36:11;14.70;91.50
37956;DHT22;23776;51.592;7.180;2023-05-07T01:38:37;14.60;91.90
37956;DHT22;23776;51.592;7.180;2023-05-07T01:41:03;14.60;91.30
37956;DHT22;23776;51.592;7.180;2023-05-07T01:43:30;14.60;91.40
37956;DHT22;23776;51.592;7.180;2023-05-07T01:45:55;14.60;92.50
37956;DHT22;23776;51.592;7.180;2023-05-07T01:48:22;14.60;92.40
37956;DHT22;23776;51.592;7.180;2023-05-07T01:50:49;14.70;92.30
37956;DHT22;23776;51.592;7.180;2023-05-07T01:53:15;14.70;92.60
37956;DHT22;23776;51.592;7.180;2023-05-07T01:55:41;15.10;92.40
37956;DHT22;23776;51.592;7.180;2023-05-07T01:58:07;14.60;92.30
37956;DHT22;23776;51.592;7.180;2023-05-07T02:00:32;14.70;91.90
37956;DHT22;23776;51.592;7.180;2023-05-07T02:02:58;14.70;92.00
37956;DHT22;23776;51.592;7.180;2023-05-07T02:05:24;15.20;92.90
37956;DHT22;23776;51.592;7.180;2023-05-07T02:07:49;14.70;92.70
37956;DHT22;23776;51.592;7.180;2023-05-07T02:10:15;14.70;92.10
37956;DHT22;23776;51.592;7.180;2023-05-07T02:12:40;14.70;92.30
37956;DHT22;23776;51.592;7.180;2023-05-07T02:15:06;14.70;92.40
37956;DHT22;23776;51.592;7.180;2023-05-07T02:17:32;14.70;92.40
37956;DHT22;23776;51.592;7.180;2023-05-07T02:19:58;14.70;92.40
37956;DHT22;23776;51.592;7.180;2023-05-07T02:22:24;14.60;92.10
37956;DHT22;23776;51.592;7.180;2023-05-07T02:24:50;14.80;92.40
37956;DHT22;23776;51.592;7.180;2023-05-07T02:27:16;14.90;92.30
37956;DHT22;23776;51.592;7.180;2023-05-07T02:29:41;14.90;92.20
37956;DHT22;23776;51.592;7.180;2023-05-07T02:32:07;14.70;92.00
37956;DHT22;23776;51.592;7.180;2023-05-07T02:34:32;14.70;92.40
37956;DHT22;23776;51.592;7.180;2023-05-07T02:36:58;14.70;92.30
37956;DHT22;23776;51.592;7.180;2023-05-07T02:39:24;14.70;92.00
37956;DHT22;23776;51.592;7.180;2023-05-07T02:41:49;14.60;92.00
37956;DHT22;23776;51.592;7.180;2023-05-07T02:44:15;14.60;92.00
37956;DHT22;23776;51.592;7.180;2023-05-07T02:46:41;14.60;92.20
37956;DHT22;23776;51.592;7.180;2023-05-07T02:49:06;14.60;92.20
37956;DHT22;23776;51.592;7.180;2023-05-07T02:51:32;14.50;92.30
37956;DHT22;23776;51.592;7.180;2023-05-07T02:53:57;14.50;92.50
37956;DHT22;23776;51.592;7.180;2023-05-07T02:56:26;14.50;92.40
37956;DHT22;23776;51.592;7.180;2023-05-07T02:58:52;14.60;92.80
37956;DHT22;23776;51.592;7.180;2023-05-07T03:01:17;14.50;91.90
37956;DHT22;23776;51.592;7.180;2023-05-07T03:03:44;14.60;92.40
37956;DHT22;23776;51.592;7.180;2023-05-07T03:06:09;14.50;92.40
37956;DHT22;23776;51.592;7.180;2023-05-07T03:08:35;14.50;92.80
37956;DHT22;23776;51.592;7.180;2023-05-07T03:11:02;14.50;92.20
37956;DHT22;23776;51.592;7.180;2023-05-07T03:13:27;15.50;92.70
37956;DHT22;23776;51.592;7.180;2023-05-07T03:15:53;14.60;92.90
37956;DHT22;23776;51.592;7.180;2023-05-07T03:18:18;14.60;92.70
37956;DHT22;23776;51.592;7.180;2023-05-07T03:20:44;14.50;92.20
37956;DHT22;23776;51.592;7.180;2023-05-07T03:23:09;14.50;92.40
37956;DHT22;23776;51.592;7.180;2023-05-07T03:25:35;14.70;92.50
37956;DHT22;23776;51.592;7.180;2023-05-07T03:28:01;14.50;92.30
37956;DHT22;23776;51.592;7.180;2023-05-07T03:30:26;14.60;92.10
37956;DHT22;23776;51.592;7.180;2023-05-07T03:32:52;14.50;92.30
37956;DHT22;23776;51.592;7.180;2023-05-07T03:35:17;14.60;92.00
37956;DHT22;23776;51.592;7.180;2023-05-07T03:37:43;14.50;92.50
37956;DHT22;23776;51.592;7.180;2023-05-07T03:40:09;14.50;92.30
37956;DHT22;23776;51.592;7.180;2023-05-07T03:42:35;14.50;92.50
37956;DHT22;23776;51.592;7.180;2023-05-07T03:45:04;14.50;92.60
37956;DHT22;23776;51.592;7.180;2023-05-07T03:47:29;14.60;92.30
37956;DHT22;23776;51.592;7.180;2023-05-07T03:49:55;14.60;92.50
37956;DHT22;23776;51.592;7.180;2023-05-07T03:52:21;14.50;91.80
37956;DHT22;23776;51.592;7.180;2023-05-07T03:54:51;14.50;92.40
37956;DHT22;23776;51.592;7.180;2023-05-07T03:57:17;14.50;92.30
37956;DHT22;23776;51.592;7.180;2023-05-07T03:59:43;14.50;92.40
37956;DHT22;23776;51.592;7.180;2023-05-07T04:02:08;14.50;91.70
37956;DHT22;23776;51.592;7.180;2023-05-07T04:04:34;14.50;91.90
37956;DHT22;23776;51.592;7.180;2023-05-07T04:06:59;14.60;91.90
37956;DHT22;23776;51.592;7.180;2023-05-07T04:09:25;14.50;91.90
37956;DHT22;23776;51.592;7.180;2023-05-07T04:11:51;14.50;91.50
37956;DHT22;23776;51.592;7.180;2023-05-07T04:14:17;14.50;91.90
37956;DHT22;23776;51.592;7.180;2023-05-07T04:16:42;15.60;92.30
37956;DHT22;23776;51.592;7.180;2023-05-07T04:19:08;14.40;91.70
37956;DHT22;23776;51.592;7.180;2023-05-07T04:21:33;14.50;92.00
37956;DHT22;23776;51.592;7.180;2023-05-07T04:23:59;14.50;92.10
37956;DHT22;23776;51.592;7.180;2023-05-07T04:26:24;14.50;91.70
37956;DHT22;23776;51.592;7.180;2023-05-07T04:28:50;14.40;92.00
37956;DHT22;23776;51.592;7.180;2023-05-07T04:31:16;14.40;92.10
37956;DHT22;23776;51.592;7.180;2023-05-07T04:33:41;14.40;92.00
37956;DHT22;23776;51.592;7.180;2023-05-07T04:36:07;14.40;92.00
37956;DHT22;23776;51.592;7.180;2023-05-07T04:38:33;14.40;92.30
37956;DHT22;23776;51.592;7.180;2023-05-07T04:41:03;14.20;92.40
37956;DHT22;23776;51.592;7.180;2023-05-07T04:43:29;14.30;92.90
37956;DHT22;23776;51.592;7.180;2023-05-07T04:45:54;14.30;93.00
37956;DHT22;23776;51.592;7.180;2023-05-07T04:48:20;14.30;92.30
37956;DHT22;23776;51.592;7.180;2023-05-07T04:50:52;14.30;92.20
37956;DHT22;23776;51.592;7.180;2023-05-07T04:53:18;14.30;92.30
37956;DHT22;23776;51.592;7.180;2023-05-07T04:55:44;14.40;92.60
37956;DHT22;23776;51.592;7.180;2023-05-07T04:58:11;14.50;92.20
37956;DHT22;23776;51.592;7.180;2023-05-07T05:00:37;14.50;92.10
37956;DHT22;23776;51.592;7.180;2023-05-07T05:03:04;14.50;92.20
37956;DHT22;23776;51.592;7.180;2023-05-07T05:05:30;14.70;91.90
37956;DHT22;23776;51.592;7.180;2023-05-07T05:07:56;14.50;92.30
37956;DHT22;23776;51.592;7.180;2023-05-07T05:10:22;14.40;91.90
37956;DHT22;23776;51.592;7.180;2023-05-07T05:12:47;14.50;92.00
37956;DHT22;23776;51.592;7.180;2023-05-07T05:15:13;14.50;92.20
37956;DHT22;23776;51.592;7.180;2023-05-07T05:17:39;14.40;91.30
37956;DHT22;23776;51.592;7.180;2023-05-07T05:20:05;15.80;92.60
37956;DHT22;23776;51.592;7.180;2023-05-07T05:22:31;14.40;92.50
37956;DHT22;23776;51.592;7.180;2023-05-07T05:24:57;14.40;92.60
37956;DHT22;23776;51.592;7.180;2023-05-07T05:27:23;14.40;92.70
37956;DHT22;23776;51.592;7.180;2023-05-07T05:29:48;14.40;92.70
37956;DHT22;23776;51.592;7.180;2023-05-07T05:32:14;14.50;91.90
37956;DHT22;23776;51.592;7.180;2023-05-07T05:37:06;14.50;91.70
37956;DHT22;23776;51.592;7.180;2023-05-07T05:39:31;15.70;92.00
37956;DHT22;23776;51.592;7.180;2023-05-07T05:41:57;14.50;91.80
37956;DHT22;23776;51.592;7.180;2023-05-07T05:44:22;14.50;91.80
37956;DHT22;23776;51.592;7.180;2023-05-07T05:46:48;14.60;91.10
37956;DHT22;23776;51.592;7.180;2023-05-07T05:49:15;14.60;91.40
37956;DHT22;23776;51.592;7.180;2023-05-07T05:51:40;14.70;91.00
37956;DHT22;23776;51.592;7.180;2023-05-07T05:54:06;14.80;91.20
37956;DHT22;23776;51.592;7.180;2023-05-07T05:56:32;14.90;91.10
37956;DHT22;23776;51.592;7.180;2023-05-07T05:58:57;14.80;90.40
37956;DHT22;23776;51.592;7.180;2023-05-07T06:01:23;14.90;90.70
37956;DHT22;23776;51.592;7.180;2023-05-07T06:03:49;14.90;90.90
37956;DHT22;23776;51.592;7.180;2023-05-07T06:06:14;14.90;91.20
37956;DHT22;23776;51.592;7.180;2023-05-07T06:08:40;15.00;91.00
37956;DHT22;23776;51.592;7.180;2023-05-07T06:11:06;15.20;89.60
37956;DHT22;23776;51.592;7.180;2023-05-07T06:13:31;15.50;89.80
37956;DHT22;23776;51.592;7.180;2023-05-07T06:15:58;15.70;89.40
37956;DHT22;23776;51.592;7.180;2023-05-07T06:18:23;15.50;88.30
37956;DHT22;23776;51.592;7.180;2023-05-07T06:20:49;15.70;85.20
37956;DHT22;23776;51.592;7.180;2023-05-07T06:23:14;15.70;84.10
37956;DHT22;23776;51.592;7.180;2023-05-07T06:25:40;15.80;80.80
37956;DHT22;23776;51.592;7.180;2023-05-07T06:28:06;15.80;79.10
37956;DHT22;23776;51.592;7.180;2023-05-07T06:30:31;15.90;76.80
37956;DHT22;23776;51.592;7.180;2023-05-07T06:32:57;15.90;76.90
37956;DHT22;23776;51.592;7.180;2023-05-07T06:35:22;15.90;68.50
37956;DHT22;23776;51.592;7.180;2023-05-07T06:37:48;16.00;71.40
37956;DHT22;23776;51.592;7.180;2023-05-07T06:40:13;16.00;65.30
37956;DHT22;23776;51.592;7.180;2023-05-07T06:42:39;16.00;66.10
37956;DHT22;23776;51.592;7.180;2023-05-07T06:45:05;16.10;62.30
37956;DHT22;23776;51.592;7.180;2023-05-07T06:47:31;16.10;64.30
37956;DHT22;23776;51.592;7.180;2023-05-07T06:49:56;16.10;60.20
37956;DHT22;23776;51.592;7.180;2023-05-07T06:52:22;16.30;60.60
37956;DHT22;23776;51.592;7.180;2023-05-07T06:54:47;16.10;63.80
37956;DHT22;23776;51.592;7.180;2023-05-07T06:57:13;16.40;59.70
37956;DHT22;23776;51.592;7.180;2023-05-07T06:59:38;16.30;59.80
37956;DHT22;23776;51.592;7.180;2023-05-07T07:02:04;16.40;59.80
37956;DHT22;23776;51.592;7.180;2023-05-07T07:04:29;16.50;60.20
37956;DHT22;23776;51.592;7.180;2023-05-07T07:06:56;16.60;58.30
37956;DHT22;23776;51.592;7.180;2023-05-07T07:09:22;16.70;56.70
37956;DHT22;23776;51.592;7.180;2023-05-07T07:11:48;16.80;56.10
37956;DHT22;23776;51.592;7.180;2023-05-07T07:14:13;16.90;54.70
37956;DHT22;23776;51.592;7.180;2023-05-07T07:16:39;17.00;44.20
37956;DHT22;23776;51.592;7.180;2023-05-07T07:19:05;17.00;49.90
37956;DHT22;23776;51.592;7.180;2023-05-07T07:21:30;17.10;44.90
37956;DHT22;23776;51.592;7.180;2023-05-07T07:23:57;17.20;46.10
37956;DHT22;23776;51.592;7.180;2023-05-07T07:26:22;17.20;42.20
37956;DHT22;23776;51.592;7.180;2023-05-07T07:28:48;17.20;37.90
37956;DHT22;23776;51.592;7.180;2023-05-07T07:31:14;17.20;34.10
37956;DHT22;23776;51.592;7.180;2023-05-07T07:33:39;17.10;28.30
37956;DHT22;23776;51.592;7.180;2023-05-07T07:36:06;17.10;28.80
37956;DHT22;23776;51.592;7.180;2023-05-07T07:38:32;17.20;28.90
37956;DHT22;23776;51.592;7.180;2023-05-07T07:40:57;17.20;28.40
37956;DHT22;23776;51.592;7.180;2023-05-07T07:43:23;17.20;28.10
37956;DHT22;23776;51.592;7.180;2023-05-07T07:45:48;17.10;29.10
37956;DHT22;23776;51.592;7.180;2023-05-07T07:48:14;17.10;27.00
37956;DHT22;23776;51.592;7.180;2023-05-07T07:50:39;17.20;23.90
37956;DHT22;23776;51.592;7.180;2023-05-07T07:53:05;17.20;23.90
37956;DHT22;23776;51.592;7.180;2023-05-07T07:55:31;17.30;21.70
37956;DHT22;23776;51.592;7.180;2023-05-07T07:57:57;17.40;15.90
37956;DHT22;23776;51.592;7.180;2023-05-07T08:00:23;17.60;10.10
37956;DHT22;23776;51.592;7.180;2023-05-07T08:02:48;17.60;10.20
37956;DHT22;23776;51.592;7.180;2023-05-07T08:05:14;17.70;5.10
37956;DHT22;23776;51.592;7.180;2023-05-07T08:07:40;17.80;2.70
37956;DHT22;23776;51.592;7.180;2023-05-07T08:10:06;17.90;2.00
37956;DHT22;23776;51.592;7.180;2023-05-07T08:12:32;18.00;1.00
37956;DHT22;23776;51.592;7.180;2023-05-07T08:14:58;18.00;1.00
37956;DHT22;23776;51.592;7.180;2023-05-07T08:17:23;17.90;1.00
37956;DHT22;23776;51.592;7.180;2023-05-07T08:19:49;17.90;1.00
37956;DHT22;23776;51.592;7.180;2023-05-07T08:22:14;17.90;1.00
37956;DHT22;23776;51.592;7.180;2023-05-07T08:24:41;17.90;1.00
37956;DHT22;23776;51.592;7.180;2023-05-07T08:27:06;17.90;1.00
37956;DHT22;23776;51.592;7.180;2023-05-07T08:29:32;17.90;1.00
37956;DHT22;23776;51.592;7.180;2023-05-07T08:31:57;18.00;1.00
37956;DHT22;23776;51.592;7.180;2023-05-07T08:34:23;18.10;1.00
37956;DHT22;23776;51.592;7.180;2023-05-07T08:36:48;18.10;1.00
37956;DHT22;23776;51.592;7.180;2023-05-07T08:39:17;18.20;1.00
37956;DHT22;23776;51.592;7.180;2023-05-07T08:41:46;18.30;1.00
37956;DHT22;23776;51.592;7.180;2023-05-07T08:44:13;18.50;1.00
37956;DHT22;23776;51.592;7.180;2023-05-07T08:46:39;18.50;1.00
37956;DHT22;23776;51.592;7.180;2023-05-07T08:49:07;18.50;1.00
37956;DHT22;23776;51.592;7.180;2023-05-07T08:51:33;18.60;1.00
37956;DHT22;23776;51.592;7.180;2023-05-07T08:54:27;18.50;1.00
37956;DHT22;23776;51.592;7.180;2023-05-07T08:56:53;18.50;1.00
37956;DHT22;23776;51.592;7.180;2023-05-07T08:59:18;18.50;1.00
37956;DHT22;23776;51.592;7.180;2023-05-07T09:01:44;18.40;1.00
37956;DHT22;23776;51.592;7.180;2023-05-07T09:04:10;18.40;1.00
37956;DHT22;23776;51.592;7.180;2023-05-07T09:06:35;18.40;1.00
37956;DHT22;23776;51.592;7.180;2023-05-07T09:09:03;18.30;1.00
37956;DHT22;23776;51.592;7.180;2023-05-07T09:11:30;18.50;1.00
37956;DHT22;23776;51.592;7.180;2023-05-07T09:13:57;18.50;1.00
37956;DHT22;23776;51.592;7.180;2023-05-07T09:16:25;18.50;1.00
37956;DHT22;23776;51.592;7.180;2023-05-07T09:18:52;18.80;1.00
37956;DHT22;23776;51.592;7.180;2023-05-07T09:21:18;18.80;1.00
37956;DHT22;23776;51.592;7.180;2023-05-07T09:23:45;18.90;1.00
37956;DHT22;23776;51.592;7.180;2023-05-07T09:26:11;19.10;1.00
37956;DHT22;23776;51.592;7.180;2023-05-07T09:28:42;19.20;1.00
37956;DHT22;23776;51.592;7.180;2023-05-07T09:31:09;19.30;1.00
37956;DHT22;23776;51.592;7.180;2023-05-07T09:33:35;19.60;1.00
37956;DHT22;23776;51.592;7.180;2023-05-07T09:36:08;19.90;1.00
37956;DHT22;23776;51.592;7.180;2023-05-07T09:38:35;20.00;99.90
37956;DHT22;23776;51.592;7.180;2023-05-07T09:43:32;20.20;99.90
37956;DHT22;23776;51.592;7.180;2023-05-07T09:45:59;20.20;99.90
37956;DHT22;23776;51.592;7.180;2023-05-07T09:48:27;20.30;99.90
37956;DHT22;23776;51.592;7.180;2023-05-07T09:50:56;20.40;99.90
37956;DHT22;23776;51.592;7.180;2023-05-07T09:53:24;20.60;99.90
37956;DHT22;23776;51.592;7.180;2023-05-07T09:55:51;20.60;99.90
37956;DHT22;23776;51.592;7.180;2023-05-07T09:58:18;20.50;99.90
37956;DHT22;23776;51.592;7.180;2023-05-07T10:00:44;20.60;99.90
37956;DHT22;23776;51.592;7.180;2023-05-07T10:03:11;20.60;99.90
37956;DHT22;23776;51.592;7.180;2023-05-07T10:05:38;20.80;99.90
37956;DHT22;23776;51.592;7.180;2023-05-07T10:08:05;20.90;99.90
37956;DHT22;23776;51.592;7.180;2023-05-07T10:10:32;20.90;1.00
37956;DHT22;23776;51.592;7.180;2023-05-07T10:12:58;21.00;1.00
37956;DHT22;23776;51.592;7.180;2023-05-07T10:15:24;21.10;1.00
37956;DHT22;23776;51.592;7.180;2023-05-07T10:17:51;21.20;1.00
37956;DHT22;23776;51.592;7.180;2023-05-07T10:20:18;21.50;99.90
37956;DHT22;23776;51.592;7.180;2023-05-07T10:22:47;21.50;99.90
37956;DHT22;23776;51.592;7.180;2023-05-07T10:25:34;21.70;74.50
37956;DHT22;23776;51.592;7.180;2023-05-07T10:28:03;21.80;16.20
37956;DHT22;23776;51.592;7.180;2023-05-07T10:30:50;22.00;99.90
37956;DHT22;23776;51.592;7.180;2023-05-07T10:33:26;22.00;99.90
37956;DHT22;23776;51.592;7.180;2023-05-07T10:35:57;22.10;1.00
37956;DHT22;23776;51.592;7.180;2023-05-07T10:38:24;22.00;1.00
37956;DHT22;23776;51.592;7.180;2023-05-07T10:40:51;22.00;99.90
37956;DHT22;23776;51.592;7.180;2023-05-07T10:43:17;22.00;5.40
37956;DHT22;23776;51.592;7.180;2023-05-07T10:45:43;22.30;50.40
37956;DHT22;23776;51.592;7.180;2023-05-07T10:48:16;22.50;92.60
37956;DHT22;23776;51.592;7.180;2023-05-07T10:50:43;22.50;99.90
37956;DHT22;23776;51.592;7.180;2023-05-07T10:55:49;22.50;99.90
37956;DHT22;23776;51.592;7.180;2023-05-07T11:00:46;22.80;1.00
37956;DHT22;23776;51.592;7.180;2023-05-07T11:03:12;22.80;99.90
37956;DHT22;23776;51.592;7.180;2023-05-07T11:05:40;23.10;99.90
37956;DHT22;23776;51.592;7.180;2023-05-07T11:08:06;23.30;99.90
37956;DHT22;23776;51.592;7.180;2023-05-07T11:10:54;23.50;99.90
37956;DHT22;23776;51.592;7.180;2023-05-07T11:13:42;23.60;96.50
37956;DHT22;23776;51.592;7.180;2023-05-07T11:16:25;23.60;99.90
37956;DHT22;23776;51.592;7.180;2023-05-07T11:18:54;23.60;29.00
37956;DHT22;23776;51.592;7.180;2023-05-07T11:23:58;23.60;35.20
37956;DHT22;23776;51.592;7.180;2023-05-07T11:26:24;23.60;43.80
37956;DHT22;23776;51.592;7.180;2023-05-07T11:28:51;23.60;1.00
37956;DHT22;23776;51.592;7.180;2023-05-07T11:31:21;23.70;1.00
37956;DHT22;23776;51.592;7.180;2023-05-07T11:33:48;23.80;1.00
37956;DHT22;23776;51.592;7.180;2023-05-07T11:36:15;23.90;99.90
37956;DHT22;23776;51.592;7.180;2023-05-07T11:38:41;24.20;1.00
37956;DHT22;23776;51.592;7.180;2023-05-07T11:41:07;24.30;1.00
37956;DHT22;23776;51.592;7.180;2023-05-07T11:43:33;24.60;99.90
37956;DHT22;23776;51.592;7.180;2023-05-07T11:46:11;24.60;99.90
37956;DHT22;23776;51.592;7.180;2023-05-07T11:48:38;24.60;99.90
37956;DHT22;23776;51.592;7.180;2023-05-07T11:51:05;24.60;1.00
37956;DHT22;23776;51.592;7.180;2023-05-07T11:53:39;24.90;99.90
37956;DHT22;23776;51.592;7.180;2023-05-07T11:56:16;25.10;99.90
37956;DHT22;23776;51.592;7.180;2023-05-07T11:58:43;25.40;99.90
37956;DHT22;23776;51.592;7.180;2023-05-07T12:01:10;25.70;1.00
37956;DHT22;23776;51.592;7.180;2023-05-07T12:03:37;26.10;99.90
37956;DHT22;23776;51.592;7.180;2023-05-07T12:06:08;26.20;99.90
37956;DHT22;23776;51.592;7.180;2023-05-07T12:08:37;26.20;51.00
37956;DHT22;23776;51.592;7.180;2023-05-07T12:11:03;26.10;37.20
37956;DHT22;23776;51.592;7.180;2023-05-07T12:13:32;25.90;63.60
37956;DHT22;23776;51.592;7.180;2023-05-07T12:15:57;25.90;55.70
37956;DHT22;23776;51.592;7.180;2023-05-07T12:18:23;25.80;67.90
37956;DHT22;23776;51.592;7.180;2023-05-07T12:20:50;25.80;99.90
37956;DHT22;23776;51.592;7.180;2023-05-07T12:23:16;25.80;49.50
37956;DHT22;23776;51.592;7.180;2023-05-07T12:25:43;26.00;57.50
37956;DHT22;23776;51.592;7.180;2023-05-07T12:28:16;26.30;1.00
37956;DHT22;23776;51.592;7.180;2023-05-07T12:30:49;26.70;1.00
37956;DHT22;23776;51.592;7.180;2023-05-07T12:33:23;26.90;99.90
37956;DHT22;23776;51.592;7.180;2023-05-07T12:35:50;27.30;99.90
37956;DHT22;23776;51.592;7.180;2023-05-07T12:38:16;28.10;99.90
37956;DHT22;23776;51.592;7.180;2023-05-07T12:40:49;28.10;99.90
37956;DHT22;23776;51.592;7.180;2023-05-07T12:43:26;28.50;99.90
37956;DHT22;23776;51.592;7.180;2023-05-07T12:45:59;28.60;99.90
37956;DHT22;23776;51.592;7.180;2023-05-07T12:48:25;28.80;99.90
37956;DHT22;23776;51.592;7.180;2023-05-07T12:50:56;28.80;99.90
37956;DHT22;23776;51.592;7.180;2023-05-07T12:53:23;28.80;99.90
37956;DHT22;23776;51.592;7.180;2023-05-07T12:55:53;28.70;99.90
37956;DHT22;23776;51.592;7.180;2023-05-07T12:58:32;28.10;99.90
37956;DHT22;23776;51.592;7.180;2023-05-07T13:00:59;27.60;99.90
37956;DHT22;23776;51.592;7.180;2023-05-07T13:05:51;26.40;99.90
37956;DHT22;23776;51.592;7.180;2023-05-07T13:08:34;26.10;99.90
37956;DHT22;23776;51.592;7.180;2023-05-07T13:11:02;25.20;99.90
37956;DHT22;23776;51.592;7.180;2023-05-07T13:13:33;25.10;99.90
37956;DHT22;23776;51.592;7.180;2023-05-07T13:15:59;24.80;99.90
37956;DHT22;23776;51.592;7.180;2023-05-07T13:18:26;24.50;1.00
37956;DHT22;23776;51.592;7.180;2023-05-07T13:20:52;24.30;1.00
37956;DHT22;23776;51.592;7.180;2023-05-07T13:23:18;24.10;1.00
37956;DHT22;23776;51.592;7.180;2023-05-07T13:25:44;23.90;7.70
37956;DHT22;23776;51.592;7.180;2023-05-07T13:28:09;23.70;99.90
37956;DHT22;23776;51.592;7.180;2023-05-07T13:30:35;23.40;99.90
37956;DHT22;23776;51.592;7.180;2023-05-07T13:33:01;23.40;99.90
37956;DHT22;23776;51.592;7.180;2023-05-07T13:35:27;23.30;99.90
37956;DHT22;23776;51.592;7.180;2023-05-07T13:37:53;23.30;99.90
37956;DHT22;23776;51.592;7.180;2023-05-07T13:40:20;23.00;99.90
37956;DHT22;23776;51.592;7.180;2023-05-07T13:42:46;23.00;99.90
37956;DHT22;23776;51.592;7.180;2023-05-07T13:45:11;22.80;99.90
37956;DHT22;23776;51.592;7.180;2023-05-07T13:47:42;22.70;1.00
37956;DHT22;23776;51.592;7.180;2023-05-07T13:50:09;22.50;99.90
37956;DHT22;23776;51.592;7.180;2023-05-07T13:52:35;22.50;1.00
37956;DHT22;23776;51.592;7.180;2023-05-07T13:55:00;22.30;1.00
37956;DHT22;23776;51.592;7.180;2023-05-07T13:57:26;22.20;73.20
37956;DHT22;23776;51.592;7.180;2023-05-07T13:59:52;22.10;99.90
37956;DHT22;23776;51.592;7.180;2023-05-07T14:02:17;22.00;99.90
37956;DHT22;23776;51.592;7.180;2023-05-07T14:04:43;22.00;99.90
37956;DHT22;23776;51.592;7.180;2023-05-07T14:07:08;22.00;1.00
37956;DHT22;23776;51.592;7.180;2023-05-07T14:09:34;21.80;81.50
37956;DHT22;23776;51.592;7.180;2023-05-07T14:11:59;21.80;99.90
37956;DHT22;23776;51.592;7.180;2023-05-07T14:14:25;21.70;99.90
37956;DHT22;23776;51.592;7.180;2023-05-07T14:16:51;21.60;73.20
37956;DHT22;23776;51.592;7.180;2023-05-07T14:19:16;21.50;99.90
37956;DHT22;23776;51.592;7.180;2023-05-07T14:21:42;21.40;99.90
37956;DHT22;23776;51.592;7.180;2023-05-07T14:24:07;21.40;99.90
37956;DHT22;23776;51.592;7.180;2023-05-07T14:26:34;21.30;99.90
37956;DHT22;23776;51.592;7.180;2023-05-07T14:29:00;21.20;99.90
37956;DHT22;23776;51.592;7.180;2023-05-07T14:31:25;21.10;99.90
37956;DHT22;23776;51.592;7.180;2023-05-07T14:33:51;21.10;99.90
37956;DHT22;23776;51.592;7.180;2023-05-07T14:36:18;21.10;99.90
37956;DHT22;23776;51.592;7.180;2023-05-07T14:38:45;21.00;99.90
37956;DHT22;23776;51.592;7.180;2023-05-07T14:41:11;21.00;99.90
37956;DHT22;23776;51.592;7.180;2023-05-07T14:43:36;21.10;99.90
37956;DHT22;23776;51.592;7.180;2023-05-07T14:46:02;21.00;99.90
37956;DHT22;23776;51.592;7.180;2023-05-07T14:48:28;21.00;99.90
37956;DHT22;23776;51.592;7.180;2023-05-07T14:50:54;21.00;1.00
37956;DHT22;23776;51.592;7.180;2023-05-07T14:53:19;20.90;1.00
37956;DHT22;23776;51.592;7.180;2023-05-07T14:55:45;21.00;1.00
37956;DHT22;23776;51.592;7.180;2023-05-07T14:58:11;21.00;1.00
37956;DHT22;23776;51.592;7.180;2023-05-07T15:00:36;20.90;1.00
37956;DHT22;23776;51.592;7.180;2023-05-07T15:03:07;21.00;67.90
37956;DHT22;23776;51.592;7.180;2023-05-07T15:05:33;21.00;35.90
37956;DHT22;23776;51.592;7.180;2023-05-07T15:07:59;20.90;48.50
37956;DHT22;23776;51.592;7.180;2023-05-07T15:10:25;21.00;99.90
37956;DHT22;23776;51.592;7.180;2023-05-07T15:12:50;21.00;99.90
37956;DHT22;23776;51.592;7.180;2023-05-07T15:15:16;21.00;99.90
37956;DHT22;23776;51.592;7.180;2023-05-07T15:17:42;21.10;99.90
37956;DHT22;23776;51.592;7.180;2023-05-07T15:20:07;21.10;99.90
37956;DHT22;23776;51.592;7.180;2023-05-07T15:22:34;21.20;99.90
37956;DHT22;23776;51.592;7.180;2023-05-07T15:25:01;21.20;99.90
37956;DHT22;23776;51.592;7.180;2023-05-07T15:27:27;21.20;99.90
37956;DHT22;23776;51.592;7.180;2023-05-07T15:29:52;21.20;99.90
37956;DHT22;23776;51.592;7.180;2023-05-07T15:32:18;21.30;99.90
37956;DHT22;23776;51.592;7.180;2023-05-07T15:34:43;21.40;99.90
37956;DHT22;23776;51.592;7.180;2023-05-07T15:37:09;21.40;99.90
37956;DHT22;23776;51.592;7.180;2023-05-07T15:39:35;21.40;99.90
37956;DHT22;23776;51.592;7.180;2023-05-07T15:42:01;21.50;99.90
37956;DHT22;23776;51.592;7.180;2023-05-07T15:44:26;21.50;99.90
37956;DHT22;23776;51.592;7.180;2023-05-07T15:46:54;21.50;99.90